sensor_id;sensor_type;location;lat;lon;timestamp;temperature;humidity
8420;DHT22;4247;48.550;8.822;2022-10-28T00:00:23;13.80;99.90
8420;DHT22;4247;48.550;8.822;2022-10-28T00:02:50;13.80;99.90
8420;DHT22;4247;48.550;8.822;2022-10-28T00:05:17;13.70;99.90
8420;DHT22;4247;48.550;8.822;2022-10-28T00:07:47;13.70;99.90
8420;DHT22;4247;48.550;8.822;2022-10-28T00:10:14;13.70;99.90
8420;DHT22;4247;48.550;8.822;2022-10-28T00:12:42;13.60;99.90
8420;DHT22;4247;48.550;8.822;2022-10-28T00:15:09;13.50;99.90
8420;DHT22;4247;48.550;8.822;2022-10-28T00:17:36;13.50;99.90
8420;DHT22;4247;48.550;8.822;2022-10-28T00:20:04;13.50;99.90
8420;DHT22;4247;48.550;8.822;2022-10-28T00:22:31;13.40;99.90
8420;DHT22;4247;48.550;8.822;2022-10-28T00:24:58;13.40;99.90
8420;DHT22;4247;48.550;8.822;2022-10-28T00:27:24;13.30;99.90
8420;DHT22;4247;48.550;8.822;2022-10-28T00:29:53;13.30;99.90
8420;DHT22;4247;48.550;8.822;2022-10-28T00:32:20;13.20;99.90
8420;DHT22;4247;48.550;8.822;2022-10-28T00:34:47;13.10;99.90
8420;DHT22;4247;48.550;8.822;2022-10-28T00:37:14;13.10;99.90
8420;DHT22;4247;48.550;8.822;2022-10-28T00:39:41;13.00;99.90
8420;DHT22;4247;48.550;8.822;2022-10-28T00:42:09;13.00;99.90
8420;DHT22;4247;48.550;8.822;2022-10-28T00:44:54;13.00;99.90
8420;DHT22;4247;48.550;8.822;2022-10-28T00:47:30;12.90;99.90
8420;DHT22;4247;48.550;8.822;2022-10-28T00:50:09;12.90;99.90
8420;DHT22;4247;48.550;8.822;2022-10-28T00:52:38;12.80;99.90
8420;DHT22;4247;48.550;8.822;2022-10-28T00:55:07;12.80;99.90
8420;DHT22;4247;48.550;8.822;2022-10-28T00:57:36;12.80;99.90
8420;DHT22;4247;48.550;8.822;2022-10-28T01:00:07;12.80;99.90
8420;DHT22;4247;48.550;8.822;2022-10-28T01:02:40;12.70;99.90
8420;DHT22;4247;48.550;8.822;2022-10-28T01:05:10;12.70;99.90
8420;DHT22;4247;48.550;8.822;2022-10-28T01:07:37;12.70;99.90
8420;DHT22;4247;48.550;8.822;2022-10-28T01:10:07;12.70;99.90
8420;DHT22;4247;48.550;8.822;2022-10-28T01:12:41;12.70;99.90
8420;DHT22;4247;48.550;8.822;2022-10-28T01:15:18;12.60;99.90
8420;DHT22;4247;48.550;8.822;2022-10-28T01:17:54;12.60;99.90
8420;DHT22;4247;48.550;8.822;2022-10-28T01:23:37;12.60;99.90
8420;DHT22;4247;48.550;8.822;2022-10-28T01:29:38;12.70;99.90
8420;DHT22;4247;48.550;8.822;2022-10-28T01:32:13;12.70;99.90
8420;DHT22;4247;48.550;8.822;2022-10-28T01:34:48;12.80;99.90
8420;DHT22;4247;48.550;8.822;2022-10-28T01:37:23;12.80;99.90
8420;DHT22;4247;48.550;8.822;2022-10-28T01:39:53;12.80;99.90
8420;DHT22;4247;48.550;8.822;2022-10-28T01:42:26;12.80;99.90
8420;DHT22;4247;48.550;8.822;2022-10-28T01:45:00;12.80;99.90
8420;DHT22;4247;48.550;8.822;2022-10-28T01:47:32;12.80;99.90
8420;DHT22;4247;48.550;8.822;2022-10-28T01:50:05;12.80;99.90
8420;DHT22;4247;48.550;8.822;2022-10-28T01:52:33;12.80;99.90
8420;DHT22;4247;48.550;8.822;2022-10-28T01:55:21;12.80;99.90
8420;DHT22;4247;48.550;8.822;2022-10-28T01:57:50;12.80;99.90
8420;DHT22;4247;48.550;8.822;2022-10-28T02:00:23;12.80;99.90
8420;DHT22;4247;48.550;8.822;2022-10-28T02:02:53;12.80;99.90
8420;DHT22;4247;48.550;8.822;2022-10-28T02:05:39;12.80;99.90
8420;DHT22;4247;48.550;8.822;2022-10-28T02:08:27;12.80;99.90
8420;DHT22;4247;48.550;8.822;2022-10-28T02:11:10;12.80;99.90
8420;DHT22;4247;48.550;8.822;2022-10-28T02:13:48;12.80;99.90
8420;DHT22;4247;48.550;8.822;2022-10-28T02:16:22;12.70;99.90
8420;DHT22;4247;48.550;8.822;2022-10-28T02:19:00;12.70;99.90
8420;DHT22;4247;48.550;8.822;2022-10-28T02:21:35;12.70;99.90
8420;DHT22;4247;48.550;8.822;2022-10-28T02:24:10;12.70;99.90
8420;DHT22;4247;48.550;8.822;2022-10-28T02:26:42;12.70;99.90
8420;DHT22;4247;48.550;8.822;2022-10-28T02:29:16;12.70;99.90
8420;DHT22;4247;48.550;8.822;2022-10-28T02:31:49;12.70;99.90
8420;DHT22;4247;48.550;8.822;2022-10-28T02:34:22;12.70;99.90
8420;DHT22;4247;48.550;8.822;2022-10-28T02:36:53;12.70;99.90
8420;DHT22;4247;48.550;8.822;2022-10-28T02:39:26;12.70;99.90
8420;DHT22;4247;48.550;8.822;2022-10-28T02:41:57;12.70;99.90
8420;DHT22;4247;48.550;8.822;2022-10-28T02:44:28;12.60;99.90
8420;DHT22;4247;48.550;8.822;2022-10-28T02:46:58;12.70;99.90
8420;DHT22;4247;48.550;8.822;2022-10-28T02:49:41;12.70;99.90
8420;DHT22;4247;48.550;8.822;2022-10-28T02:52:09;12.80;99.90
8420;DHT22;4247;48.550;8.822;2022-10-28T02:54:39;12.80;99.90
8420;DHT22;4247;48.550;8.822;2022-10-28T02:57:09;12.90;99.90
8420;DHT22;4247;48.550;8.822;2022-10-28T02:59:40;12.90;99.90
8420;DHT22;4247;48.550;8.822;2022-10-28T03:02:08;13.00;99.90
8420;DHT22;4247;48.550;8.822;2022-10-28T03:04:35;13.10;99.90
8420;DHT22;4247;48.550;8.822;2022-10-28T03:07:03;13.10;99.90
8420;DHT22;4247;48.550;8.822;2022-10-28T03:09:30;13.20;99.90
8420;DHT22;4247;48.550;8.822;2022-10-28T03:11:57;13.30;99.90
8420;DHT22;4247;48.550;8.822;2022-10-28T03:14:23;13.40;99.90
8420;DHT22;4247;48.550;8.822;2022-10-28T03:16:50;13.40;99.90
8420;DHT22;4247;48.550;8.822;2022-10-28T03:19:17;13.50;99.90
8420;DHT22;4247;48.550;8.822;2022-10-28T03:21:44;13.50;99.90
8420;DHT22;4247;48.550;8.822;2022-10-28T03:24:12;13.60;99.90
8420;DHT22;4247;48.550;8.822;2022-10-28T03:26:39;13.60;99.90
8420;DHT22;4247;48.550;8.822;2022-10-28T03:29:06;13.60;99.90
8420;DHT22;4247;48.550;8.822;2022-10-28T03:31:33;13.60;99.90
8420;DHT22;4247;48.550;8.822;2022-10-28T03:34:00;13.60;99.90
8420;DHT22;4247;48.550;8.822;2022-10-28T03:36:27;13.70;99.90
8420;DHT22;4247;48.550;8.822;2022-10-28T03:38:54;13.70;99.90
8420;DHT22;4247;48.550;8.822;2022-10-28T03:41:24;13.80;99.90
8420;DHT22;4247;48.550;8.822;2022-10-28T03:43:51;13.70;99.90
8420;DHT22;4247;48.550;8.822;2022-10-28T03:46:18;13.70;99.90
8420;DHT22;4247;48.550;8.822;2022-10-28T03:48:44;13.70;99.90
8420;DHT22;4247;48.550;8.822;2022-10-28T03:51:11;13.80;99.90
8420;DHT22;4247;48.550;8.822;2022-10-28T03:53:39;13.80;99.90
8420;DHT22;4247;48.550;8.822;2022-10-28T03:56:06;13.80;99.90
8420;DHT22;4247;48.550;8.822;2022-10-28T03:58:35;13.80;99.90
8420;DHT22;4247;48.550;8.822;2022-10-28T04:01:02;13.90;99.90
8420;DHT22;4247;48.550;8.822;2022-10-28T04:03:29;13.90;99.90
8420;DHT22;4247;48.550;8.822;2022-10-28T04:05:56;13.90;99.90
8420;DHT22;4247;48.550;8.822;2022-10-28T04:08:23;13.90;99.90
8420;DHT22;4247;48.550;8.822;2022-10-28T04:10:49;13.90;99.90
8420;DHT22;4247;48.550;8.822;2022-10-28T04:13:16;14.00;99.90
8420;DHT22;4247;48.550;8.822;2022-10-28T04:15:45;13.90;99.90
8420;DHT22;4247;48.550;8.822;2022-10-28T04:18:11;14.00;99.90
8420;DHT22;4247;48.550;8.822;2022-10-28T04:20:38;14.00;99.90
8420;DHT22;4247;48.550;8.822;2022-10-28T04:23:06;14.00;99.90
8420;DHT22;4247;48.550;8.822;2022-10-28T04:25:33;14.00;99.90
8420;DHT22;4247;48.550;8.822;2022-10-28T04:27:59;14.00;99.90
8420;DHT22;4247;48.550;8.822;2022-10-28T04:30:26;14.00;99.90
8420;DHT22;4247;48.550;8.822;2022-10-28T04:32:54;14.10;99.90
8420;DHT22;4247;48.550;8.822;2022-10-28T04:35:22;14.10;99.90
8420;DHT22;4247;48.550;8.822;2022-10-28T04:37:49;14.10;99.90
8420;DHT22;4247;48.550;8.822;2022-10-28T04:40:16;14.00;99.90
8420;DHT22;4247;48.550;8.822;2022-10-28T04:42:43;14.00;99.90
8420;DHT22;4247;48.550;8.822;2022-10-28T04:45:13;14.00;99.90
8420;DHT22;4247;48.550;8.822;2022-10-28T04:47:40;14.00;99.90
8420;DHT22;4247;48.550;8.822;2022-10-28T04:50:10;13.90;99.90
8420;DHT22;4247;48.550;8.822;2022-10-28T04:52:37;13.90;99.90
8420;DHT22;4247;48.550;8.822;2022-10-28T04:55:04;13.90;99.90
8420;DHT22;4247;48.550;8.822;2022-10-28T04:57:31;13.90;99.90
8420;DHT22;4247;48.550;8.822;2022-10-28T04:59:58;13.90;99.90
8420;DHT22;4247;48.550;8.822;2022-10-28T05:02:25;13.80;99.90
8420;DHT22;4247;48.550;8.822;2022-10-28T05:04:52;13.80;99.90
8420;DHT22;4247;48.550;8.822;2022-10-28T05:07:20;13.80;99.90
8420;DHT22;4247;48.550;8.822;2022-10-28T05:09:47;13.80;99.90
8420;DHT22;4247;48.550;8.822;2022-10-28T05:12:14;13.80;99.90
8420;DHT22;4247;48.550;8.822;2022-10-28T05:14:41;13.80;99.90
8420;DHT22;4247;48.550;8.822;2022-10-28T05:17:09;13.80;99.90
8420;DHT22;4247;48.550;8.822;2022-10-28T05:19:36;13.80;99.90
8420;DHT22;4247;48.550;8.822;2022-10-28T05:22:03;13.80;99.90
8420;DHT22;4247;48.550;8.822;2022-10-28T05:24:32;13.80;99.90
8420;DHT22;4247;48.550;8.822;2022-10-28T05:26:59;13.70;99.90
8420;DHT22;4247;48.550;8.822;2022-10-28T05:29:26;13.70;99.90
8420;DHT22;4247;48.550;8.822;2022-10-28T05:31:53;13.70;99.90
8420;DHT22;4247;48.550;8.822;2022-10-28T05:34:19;13.70;99.90
8420;DHT22;4247;48.550;8.822;2022-10-28T05:36:46;13.70;99.90
8420;DHT22;4247;48.550;8.822;2022-10-28T05:39:15;13.70;99.90
8420;DHT22;4247;48.550;8.822;2022-10-28T05:41:43;13.80;99.90
8420;DHT22;4247;48.550;8.822;2022-10-28T05:44:10;13.70;99.90
8420;DHT22;4247;48.550;8.822;2022-10-28T05:46:39;13.70;99.90
8420;DHT22;4247;48.550;8.822;2022-10-28T05:49:06;13.70;99.90
8420;DHT22;4247;48.550;8.822;2022-10-28T05:51:33;13.70;99.90
8420;DHT22;4247;48.550;8.822;2022-10-28T05:54:00;13.70;99.90
8420;DHT22;4247;48.550;8.822;2022-10-28T05:56:27;13.70;99.90
8420;DHT22;4247;48.550;8.822;2022-10-28T05:58:55;13.70;99.90
8420;DHT22;4247;48.550;8.822;2022-10-28T06:01:22;13.70;99.90
8420;DHT22;4247;48.550;8.822;2022-10-28T06:03:49;13.70;99.90
8420;DHT22;4247;48.550;8.822;2022-10-28T06:06:16;13.80;99.90
8420;DHT22;4247;48.550;8.822;2022-10-28T06:08:42;13.80;99.90
8420;DHT22;4247;48.550;8.822;2022-10-28T06:11:09;13.80;99.90
8420;DHT22;4247;48.550;8.822;2022-10-28T06:13:36;13.80;99.90
8420;DHT22;4247;48.550;8.822;2022-10-28T06:16:05;13.90;99.90
8420;DHT22;4247;48.550;8.822;2022-10-28T06:18:32;13.80;99.90
8420;DHT22;4247;48.550;8.822;2022-10-28T06:20:59;13.90;99.90
8420;DHT22;4247;48.550;8.822;2022-10-28T06:23:26;13.90;99.90
8420;DHT22;4247;48.550;8.822;2022-10-28T06:25:56;13.90;99.90
8420;DHT22;4247;48.550;8.822;2022-10-28T06:28:23;13.90;99.90
8420;DHT22;4247;48.550;8.822;2022-10-28T06:30:50;14.00;99.90
8420;DHT22;4247;48.550;8.822;2022-10-28T06:33:19;14.00;99.90
8420;DHT22;4247;48.550;8.822;2022-10-28T06:35:46;14.00;99.90
8420;DHT22;4247;48.550;8.822;2022-10-28T06:38:13;14.00;99.90
8420;DHT22;4247;48.550;8.822;2022-10-28T06:40:40;14.00;99.90
8420;DHT22;4247;48.550;8.822;2022-10-28T06:43:08;14.10;99.90
8420;DHT22;4247;48.550;8.822;2022-10-28T06:45:37;14.10;99.90
8420;DHT22;4247;48.550;8.822;2022-10-28T06:48:05;14.10;99.90
8420;DHT22;4247;48.550;8.822;2022-10-28T06:50:34;14.10;99.90
8420;DHT22;4247;48.550;8.822;2022-10-28T06:53:01;14.10;99.90
8420;DHT22;4247;48.550;8.822;2022-10-28T06:55:28;14.20;99.90
8420;DHT22;4247;48.550;8.822;2022-10-28T06:57:58;14.20;99.90
8420;DHT22;4247;48.550;8.822;2022-10-28T07:00:25;14.20;99.90
8420;DHT22;4247;48.550;8.822;2022-10-28T07:02:53;14.30;99.90
8420;DHT22;4247;48.550;8.822;2022-10-28T07:05:20;14.30;99.90
8420;DHT22;4247;48.550;8.822;2022-10-28T07:07:49;14.40;99.90
8420;DHT22;4247;48.550;8.822;2022-10-28T07:10:16;14.40;99.90
8420;DHT22;4247;48.550;8.822;2022-10-28T07:12:43;14.40;99.90
8420;DHT22;4247;48.550;8.822;2022-10-28T07:15:10;14.50;99.90
8420;DHT22;4247;48.550;8.822;2022-10-28T07:17:37;14.50;99.90
8420;DHT22;4247;48.550;8.822;2022-10-28T07:20:06;14.50;99.90
8420;DHT22;4247;48.550;8.822;2022-10-28T07:22:33;14.50;99.90
8420;DHT22;4247;48.550;8.822;2022-10-28T07:25:01;14.60;99.90
8420;DHT22;4247;48.550;8.822;2022-10-28T07:27:28;14.60;99.90
8420;DHT22;4247;48.550;8.822;2022-10-28T07:29:55;14.60;99.90
8420;DHT22;4247;48.550;8.822;2022-10-28T07:32:23;14.70;99.90
8420;DHT22;4247;48.550;8.822;2022-10-28T07:34:51;14.70;99.90
8420;DHT22;4247;48.550;8.822;2022-10-28T07:37:18;14.70;99.90
8420;DHT22;4247;48.550;8.822;2022-10-28T07:39:45;14.80;99.90
8420;DHT22;4247;48.550;8.822;2022-10-28T07:42:13;14.80;99.90
8420;DHT22;4247;48.550;8.822;2022-10-28T07:44:40;14.90;99.90
8420;DHT22;4247;48.550;8.822;2022-10-28T07:47:07;14.90;99.90
8420;DHT22;4247;48.550;8.822;2022-10-28T07:49:33;14.90;99.90
8420;DHT22;4247;48.550;8.822;2022-10-28T07:52:00;15.00;99.90
8420;DHT22;4247;48.550;8.822;2022-10-28T07:54:27;15.00;99.90
8420;DHT22;4247;48.550;8.822;2022-10-28T07:56:57;15.10;99.90
8420;DHT22;4247;48.550;8.822;2022-10-28T07:59:25;15.10;99.90
8420;DHT22;4247;48.550;8.822;2022-10-28T08:01:52;15.20;99.90
8420;DHT22;4247;48.550;8.822;2022-10-28T08:04:19;15.30;99.90
8420;DHT22;4247;48.550;8.822;2022-10-28T08:06:46;15.30;99.90
8420;DHT22;4247;48.550;8.822;2022-10-28T08:09:13;15.40;99.90
8420;DHT22;4247;48.550;8.822;2022-10-28T08:11:40;15.40;99.90
8420;DHT22;4247;48.550;8.822;2022-10-28T08:14:07;15.50;99.90
8420;DHT22;4247;48.550;8.822;2022-10-28T08:16:35;15.60;99.90
8420;DHT22;4247;48.550;8.822;2022-10-28T08:19:02;15.60;99.90
8420;DHT22;4247;48.550;8.822;2022-10-28T08:21:29;15.70;99.90
8420;DHT22;4247;48.550;8.822;2022-10-28T08:24:12;15.70;99.90
8420;DHT22;4247;48.550;8.822;2022-10-28T08:26:39;15.80;99.90
8420;DHT22;4247;48.550;8.822;2022-10-28T08:29:06;15.90;99.90
8420;DHT22;4247;48.550;8.822;2022-10-28T08:31:35;15.90;99.90
8420;DHT22;4247;48.550;8.822;2022-10-28T08:34:01;16.00;99.90
8420;DHT22;4247;48.550;8.822;2022-10-28T08:36:34;16.10;99.90
8420;DHT22;4247;48.550;8.822;2022-10-28T08:39:01;16.10;99.90
8420;DHT22;4247;48.550;8.822;2022-10-28T08:41:34;16.20;99.90
8420;DHT22;4247;48.550;8.822;2022-10-28T08:44:29;16.20;99.90
8420;DHT22;4247;48.550;8.822;2022-10-28T08:47:11;16.30;99.90
8420;DHT22;4247;48.550;8.822;2022-10-28T08:49:41;16.40;99.90
8420;DHT22;4247;48.550;8.822;2022-10-28T08:52:15;16.40;99.90
8420;DHT22;4247;48.550;8.822;2022-10-28T08:54:50;16.50;99.90
8420;DHT22;4247;48.550;8.822;2022-10-28T08:57:23;16.60;99.90
8420;DHT22;4247;48.550;8.822;2022-10-28T08:59:52;16.70;99.90
8420;DHT22;4247;48.550;8.822;2022-10-28T09:02:23;16.70;99.90
8420;DHT22;4247;48.550;8.822;2022-10-28T09:04:57;16.80;99.90
8420;DHT22;4247;48.550;8.822;2022-10-28T09:07:25;16.90;99.90
8420;DHT22;4247;48.550;8.822;2022-10-28T09:09:52;16.90;99.90
8420;DHT22;4247;48.550;8.822;2022-10-28T09:12:30;17.00;99.90
8420;DHT22;4247;48.550;8.822;2022-10-28T09:15:19;17.00;99.90
8420;DHT22;4247;48.550;8.822;2022-10-28T09:17:54;17.10;99.90
8420;DHT22;4247;48.550;8.822;2022-10-28T09:20:37;17.20;99.90
8420;DHT22;4247;48.550;8.822;2022-10-28T09:23:19;17.30;99.90
8420;DHT22;4247;48.550;8.822;2022-10-28T09:25:53;17.40;99.90
8420;DHT22;4247;48.550;8.822;2022-10-28T09:28:33;17.50;99.90
8420;DHT22;4247;48.550;8.822;2022-10-28T09:31:07;17.60;99.90
8420;DHT22;4247;48.550;8.822;2022-10-28T09:34:06;17.70;99.90
8420;DHT22;4247;48.550;8.822;2022-10-28T09:36:38;17.90;99.90
8420;DHT22;4247;48.550;8.822;2022-10-28T09:39:08;18.00;99.90
8420;DHT22;4247;48.550;8.822;2022-10-28T09:41:42;18.00;99.90
8420;DHT22;4247;48.550;8.822;2022-10-28T09:44:16;18.20;99.90
8420;DHT22;4247;48.550;8.822;2022-10-28T09:46:46;18.30;99.90
8420;DHT22;4247;48.550;8.822;2022-10-28T09:49:17;18.30;99.90
8420;DHT22;4247;48.550;8.822;2022-10-28T09:51:53;18.30;99.90
8420;DHT22;4247;48.550;8.822;2022-10-28T09:54:27;18.40;99.90
8420;DHT22;4247;48.550;8.822;2022-10-28T09:56:55;18.50;99.90
8420;DHT22;4247;48.550;8.822;2022-10-28T09:59:22;18.50;99.90
8420;DHT22;4247;48.550;8.822;2022-10-28T10:01:50;18.60;99.90
8420;DHT22;4247;48.550;8.822;2022-10-28T10:04:21;18.60;99.90
8420;DHT22;4247;48.550;8.822;2022-10-28T10:06:50;18.80;99.90
8420;DHT22;4247;48.550;8.822;2022-10-28T10:09:22;18.80;99.90
8420;DHT22;4247;48.550;8.822;2022-10-28T10:12:00;18.90;99.90
8420;DHT22;4247;48.550;8.822;2022-10-28T10:14:30;18.90;99.90
8420;DHT22;4247;48.550;8.822;2022-10-28T10:17:04;19.00;99.90
8420;DHT22;4247;48.550;8.822;2022-10-28T10:22:41;19.10;99.90
8420;DHT22;4247;48.550;8.822;2022-10-28T10:25:26;19.20;99.90
8420;DHT22;4247;48.550;8.822;2022-10-28T10:27:57;19.20;99.90
8420;DHT22;4247;48.550;8.822;2022-10-28T10:30:29;19.20;99.90
8420;DHT22;4247;48.550;8.822;2022-10-28T10:33:03;19.20;99.90
8420;DHT22;4247;48.550;8.822;2022-10-28T10:35:33;19.20;99.90
8420;DHT22;4247;48.550;8.822;2022-10-28T10:38:04;19.30;99.90
8420;DHT22;4247;48.550;8.822;2022-10-28T10:40:33;19.30;99.90
8420;DHT22;4247;48.550;8.822;2022-10-28T10:43:19;19.40;99.90
8420;DHT22;4247;48.550;8.822;2022-10-28T10:45:51;19.50;99.90
8420;DHT22;4247;48.550;8.822;2022-10-28T10:48:18;19.60;99.90
8420;DHT22;4247;48.550;8.822;2022-10-28T10:50:46;19.70;99.90
8420;DHT22;4247;48.550;8.822;2022-10-28T10:53:25;19.80;99.90
8420;DHT22;4247;48.550;8.822;2022-10-28T10:55:56;19.90;99.90
8420;DHT22;4247;48.550;8.822;2022-10-28T10:58:26;20.10;99.90
8420;DHT22;4247;48.550;8.822;2022-10-28T11:00:55;20.20;99.90
8420;DHT22;4247;48.550;8.822;2022-10-28T11:03:28;20.30;99.90
8420;DHT22;4247;48.550;8.822;2022-10-28T11:05:57;20.40;99.90
8420;DHT22;4247;48.550;8.822;2022-10-28T11:08:37;20.50;99.90
8420;DHT22;4247;48.550;8.822;2022-10-28T11:11:11;20.60;99.90
8420;DHT22;4247;48.550;8.822;2022-10-28T11:13:40;20.60;99.90
8420;DHT22;4247;48.550;8.822;2022-10-28T11:16:17;20.60;99.90
8420;DHT22;4247;48.550;8.822;2022-10-28T11:18:45;20.70;99.90
8420;DHT22;4247;48.550;8.822;2022-10-28T11:21:39;20.70;99.90
8420;DHT22;4247;48.550;8.822;2022-10-28T11:24:44;20.60;99.90
8420;DHT22;4247;48.550;8.822;2022-10-28T11:27:20;20.60;99.90
8420;DHT22;4247;48.550;8.822;2022-10-28T11:29:50;20.60;99.90
8420;DHT22;4247;48.550;8.822;2022-10-28T11:32:28;20.60;99.90
8420;DHT22;4247;48.550;8.822;2022-10-28T11:35:26;20.60;99.90
8420;DHT22;4247;48.550;8.822;2022-10-28T11:38:05;20.70;99.90
8420;DHT22;4247;48.550;8.822;2022-10-28T11:40:46;20.80;99.90
8420;DHT22;4247;48.550;8.822;2022-10-28T11:43:23;20.80;99.90
8420;DHT22;4247;48.550;8.822;2022-10-28T11:46:01;20.80;99.90
8420;DHT22;4247;48.550;8.822;2022-10-28T11:48:40;20.80;99.90
8420;DHT22;4247;48.550;8.822;2022-10-28T11:51:16;20.80;99.90
8420;DHT22;4247;48.550;8.822;2022-10-28T11:53:56;20.70;99.90
8420;DHT22;4247;48.550;8.822;2022-10-28T11:56:34;20.70;99.90
8420;DHT22;4247;48.550;8.822;2022-10-28T11:59:32;20.70;99.90
8420;DHT22;4247;48.550;8.822;2022-10-28T12:02:21;20.70;99.90
8420;DHT22;4247;48.550;8.822;2022-10-28T12:04:57;20.70;99.90
8420;DHT22;4247;48.550;8.822;2022-10-28T12:07:40;20.80;99.90
8420;DHT22;4247;48.550;8.822;2022-10-28T12:10:32;20.70;99.90
8420;DHT22;4247;48.550;8.822;2022-10-28T12:13:07;20.70;99.90
8420;DHT22;4247;48.550;8.822;2022-10-28T12:15:41;20.80;99.90
8420;DHT22;4247;48.550;8.822;2022-10-28T12:18:17;20.80;99.90
8420;DHT22;4247;48.550;8.822;2022-10-28T12:20:56;20.80;99.90
8420;DHT22;4247;48.550;8.822;2022-10-28T12:23:25;20.80;99.90
8420;DHT22;4247;48.550;8.822;2022-10-28T12:25:55;20.80;99.90
8420;DHT22;4247;48.550;8.822;2022-10-28T12:28:29;20.90;99.90
8420;DHT22;4247;48.550;8.822;2022-10-28T12:30:59;20.90;99.90
8420;DHT22;4247;48.550;8.822;2022-10-28T12:33:31;20.80;99.90
8420;DHT22;4247;48.550;8.822;2022-10-28T12:36:17;20.90;99.90
8420;DHT22;4247;48.550;8.822;2022-10-28T12:38:50;20.80;99.90
8420;DHT22;4247;48.550;8.822;2022-10-28T12:41:24;20.90;99.90
8420;DHT22;4247;48.550;8.822;2022-10-28T12:43:55;20.90;99.90
8420;DHT22;4247;48.550;8.822;2022-10-28T12:46:29;20.90;99.90
8420;DHT22;4247;48.550;8.822;2022-10-28T12:49:02;20.90;99.90
8420;DHT22;4247;48.550;8.822;2022-10-28T12:51:35;20.90;99.90
8420;DHT22;4247;48.550;8.822;2022-10-28T12:54:12;20.90;99.90
8420;DHT22;4247;48.550;8.822;2022-10-28T12:56:45;20.90;99.90
8420;DHT22;4247;48.550;8.822;2022-10-28T12:59:19;20.90;99.90
8420;DHT22;4247;48.550;8.822;2022-10-28T13:01:51;20.90;99.90
8420;DHT22;4247;48.550;8.822;2022-10-28T13:04:18;21.00;99.90
8420;DHT22;4247;48.550;8.822;2022-10-28T13:07:13;20.90;99.90
8420;DHT22;4247;48.550;8.822;2022-10-28T13:09:59;21.00;99.90
8420;DHT22;4247;48.550;8.822;2022-10-28T13:12:44;21.00;99.90
8420;DHT22;4247;48.550;8.822;2022-10-28T13:15:31;21.00;99.90
8420;DHT22;4247;48.550;8.822;2022-10-28T13:21:13;21.10;99.90
8420;DHT22;4247;48.550;8.822;2022-10-28T13:23:51;21.00;99.90
8420;DHT22;4247;48.550;8.822;2022-10-28T13:26:21;21.10;99.90
8420;DHT22;4247;48.550;8.822;2022-10-28T13:28:53;21.10;99.90
8420;DHT22;4247;48.550;8.822;2022-10-28T13:31:37;21.20;99.90
8420;DHT22;4247;48.550;8.822;2022-10-28T13:34:05;21.30;99.90
8420;DHT22;4247;48.550;8.822;2022-10-28T13:36:36;21.40;99.90
8420;DHT22;4247;48.550;8.822;2022-10-28T13:39:23;21.40;99.90
8420;DHT22;4247;48.550;8.822;2022-10-28T13:44:51;21.60;99.90
8420;DHT22;4247;48.550;8.822;2022-10-28T13:47:29;21.60;99.90
8420;DHT22;4247;48.550;8.822;2022-10-28T13:50:31;21.60;99.90
8420;DHT22;4247;48.550;8.822;2022-10-28T13:56:26;21.60;99.90
8420;DHT22;4247;48.550;8.822;2022-10-28T13:58:57;21.60;99.90
8420;DHT22;4247;48.550;8.822;2022-10-28T14:01:50;21.60;99.90
8420;DHT22;4247;48.550;8.822;2022-10-28T14:04:23;21.50;99.90
8420;DHT22;4247;48.550;8.822;2022-10-28T14:07:00;21.60;99.90
8420;DHT22;4247;48.550;8.822;2022-10-28T14:09:30;21.60;99.90
8420;DHT22;4247;48.550;8.822;2022-10-28T14:12:20;21.60;99.90
8420;DHT22;4247;48.550;8.822;2022-10-28T14:14:51;21.50;99.90
8420;DHT22;4247;48.550;8.822;2022-10-28T14:17:22;21.50;99.90
8420;DHT22;4247;48.550;8.822;2022-10-28T14:19:52;21.50;99.90
8420;DHT22;4247;48.550;8.822;2022-10-28T14:22:30;21.50;99.90
8420;DHT22;4247;48.550;8.822;2022-10-28T14:24:57;21.50;99.90
8420;DHT22;4247;48.550;8.822;2022-10-28T14:27:41;21.50;99.90
8420;DHT22;4247;48.550;8.822;2022-10-28T14:30:16;21.50;99.90
8420;DHT22;4247;48.550;8.822;2022-10-28T14:36:06;21.60;99.90
8420;DHT22;4247;48.550;8.822;2022-10-28T14:39:17;21.50;99.90
8420;DHT22;4247;48.550;8.822;2022-10-28T14:42:00;21.50;99.90
8420;DHT22;4247;48.550;8.822;2022-10-28T14:44:40;21.50;99.90
8420;DHT22;4247;48.550;8.822;2022-10-28T14:47:34;21.40;99.90
8420;DHT22;4247;48.550;8.822;2022-10-28T14:50:04;21.40;99.90
8420;DHT22;4247;48.550;8.822;2022-10-28T14:52:35;21.30;99.90
8420;DHT22;4247;48.550;8.822;2022-10-28T14:55:05;21.20;99.90
8420;DHT22;4247;48.550;8.822;2022-10-28T14:57:33;21.10;99.90
8420;DHT22;4247;48.550;8.822;2022-10-28T15:00:02;21.10;99.90
8420;DHT22;4247;48.550;8.822;2022-10-28T15:02:31;21.10;99.90
8420;DHT22;4247;48.550;8.822;2022-10-28T15:05:15;21.00;99.90
8420;DHT22;4247;48.550;8.822;2022-10-28T15:07:44;21.00;99.90
8420;DHT22;4247;48.550;8.822;2022-10-28T15:10:14;21.00;99.90
8420;DHT22;4247;48.550;8.822;2022-10-28T15:12:45;20.90;99.90
8420;DHT22;4247;48.550;8.822;2022-10-28T15:15:17;20.90;99.90
8420;DHT22;4247;48.550;8.822;2022-10-28T15:17:45;20.80;99.90
8420;DHT22;4247;48.550;8.822;2022-10-28T15:20:19;20.80;99.90
8420;DHT22;4247;48.550;8.822;2022-10-28T15:22:49;20.80;99.90
8420;DHT22;4247;48.550;8.822;2022-10-28T15:25:18;20.70;99.90
8420;DHT22;4247;48.550;8.822;2022-10-28T15:27:46;20.70;99.90
8420;DHT22;4247;48.550;8.822;2022-10-28T15:30:17;20.70;99.90
8420;DHT22;4247;48.550;8.822;2022-10-28T15:32:45;20.60;99.90
8420;DHT22;4247;48.550;8.822;2022-10-28T15:35:34;20.60;99.90
8420;DHT22;4247;48.550;8.822;2022-10-28T15:38:24;20.50;99.90
8420;DHT22;4247;48.550;8.822;2022-10-28T15:40:52;20.40;99.90
8420;DHT22;4247;48.550;8.822;2022-10-28T15:43:24;20.40;99.90
8420;DHT22;4247;48.550;8.822;2022-10-28T15:45:52;20.30;99.90
8420;DHT22;4247;48.550;8.822;2022-10-28T15:48:22;20.30;99.90
8420;DHT22;4247;48.550;8.822;2022-10-28T15:51:11;20.20;99.90
8420;DHT22;4247;48.550;8.822;2022-10-28T15:53:43;20.10;99.90
8420;DHT22;4247;48.550;8.822;2022-10-28T15:56:21;20.00;99.90
8420;DHT22;4247;48.550;8.822;2022-10-28T15:59:00;20.00;99.90
8420;DHT22;4247;48.550;8.822;2022-10-28T16:01:34;19.90;99.90
8420;DHT22;4247;48.550;8.822;2022-10-28T16:04:42;19.80;99.90
8420;DHT22;4247;48.550;8.822;2022-10-28T16:07:09;19.70;99.90
8420;DHT22;4247;48.550;8.822;2022-10-28T16:09:43;19.60;99.90
8420;DHT22;4247;48.550;8.822;2022-10-28T16:12:14;19.50;99.90
8420;DHT22;4247;48.550;8.822;2022-10-28T16:14:43;19.40;99.90
8420;DHT22;4247;48.550;8.822;2022-10-28T16:17:14;19.30;99.90
8420;DHT22;4247;48.550;8.822;2022-10-28T16:19:44;19.20;99.90
8420;DHT22;4247;48.550;8.822;2022-10-28T16:22:13;19.10;99.90
8420;DHT22;4247;48.550;8.822;2022-10-28T16:24:41;19.00;99.90
8420;DHT22;4247;48.550;8.822;2022-10-28T16:27:15;18.90;99.90
8420;DHT22;4247;48.550;8.822;2022-10-28T16:29:42;18.80;99.90
8420;DHT22;4247;48.550;8.822;2022-10-28T16:32:10;18.70;99.90
8420;DHT22;4247;48.550;8.822;2022-10-28T16:34:38;18.60;99.90
8420;DHT22;4247;48.550;8.822;2022-10-28T16:37:21;18.50;99.90
8420;DHT22;4247;48.550;8.822;2022-10-28T16:39:50;18.40;99.90
8420;DHT22;4247;48.550;8.822;2022-10-28T16:42:18;18.40;99.90
8420;DHT22;4247;48.550;8.822;2022-10-28T16:44:45;18.30;99.90
8420;DHT22;4247;48.550;8.822;2022-10-28T16:47:15;18.20;99.90
8420;DHT22;4247;48.550;8.822;2022-10-28T16:49:42;18.10;99.90
8420;DHT22;4247;48.550;8.822;2022-10-28T16:52:13;18.10;99.90
8420;DHT22;4247;48.550;8.822;2022-10-28T16:54:41;18.00;99.90